Terminal Aerodrome Forecast
Issued by NWS Blacksburg, VA

Current Version | Previous Version | Graphics & Text | Print | Product List | Glossary On
Versions: 1 2 3 4 5 6 7 8 9 10 11 12 13 14 15
000
FTUS41 KRNK 261140
TAFBLF
TAF
KBLF 261140Z 2612/2712 26006KT 1 1/2SM BR BKN002
      TEMPO 2612/2613 1/2SM FG VV002
     FM261400 VRB03KT P6SM SKC=

USA.gov is the U.S. government's official web portal to all federal, state and local government web resources and services.